createdAt,value
2019-03-06T00:00:45.785Z,100.30
2019-03-06T00:03:12.826Z,98.53
2019-03-06T00:05:39.945Z,100.97
2019-03-06T00:08:07.029Z,99.60
2019-03-06T00:10:34.079Z,99.87
2019-03-06T00:13:01.231Z,104.77
2019-03-06T00:15:28.384Z,93.60
2019-03-06T00:17:55.427Z,103.30
2019-03-06T00:20:22.602Z,99.40
2019-03-06T00:22:49.726Z,107.73
2019-03-06T00:25:16.778Z,104.33
2019-03-06T00:27:43.829Z,105.73
2019-03-06T00:30:10.979Z,104.80
2019-03-06T00:32:38.025Z,101.17
2019-03-06T00:35:05.328Z,99.60
2019-03-06T00:37:32.331Z,98.90
2019-03-06T00:39:59.478Z,100.07
2019-03-06T00:42:26.526Z,100.07
2019-03-06T00:44:53.587Z,100.73
2019-03-06T00:47:20.729Z,104.20
2019-03-06T00:49:47.774Z,100.33
2019-03-06T00:52:14.821Z,93.77
2019-03-06T00:54:41.810Z,101.60
2019-03-06T00:57:08.912Z,98.33
2019-03-06T00:59:35.961Z,95.67
2019-03-06T01:02:03.114Z,98.67
2019-03-06T01:04:30.167Z,99.50
2019-03-06T01:06:58.079Z,96.23
2019-03-06T01:09:25.698Z,99.37
2019-03-06T01:11:52.739Z,101.57
2019-03-06T01:14:19.788Z,94.07
2019-03-06T01:16:46.842Z,88.27
2019-03-06T01:19:13.902Z,85.50
2019-03-06T01:21:40.932Z,91.63
2019-03-06T01:24:07.987Z,91.93
2019-03-06T01:26:35.444Z,94.47
2019-03-06T01:29:02.603Z,99.87
2019-03-06T01:31:29.639Z,104.07
2019-03-06T01:33:59.662Z,97.53
2019-03-06T01:36:28.445Z,104.37
2019-03-06T01:38:58.265Z,101.77
2019-03-06T01:41:28.381Z,906.80
2019-03-06T01:43:57.273Z,1999.90
2019-03-06T01:46:24.272Z,1862.23
2019-03-06T01:48:51.267Z,1840.47
2019-03-06T01:51:18.322Z,995.90
2019-03-06T01:53:45.377Z,1889.13
2019-03-06T01:56:12.414Z,1145.70
2019-03-06T01:58:39.428Z,1084.03
2019-03-06T02:01:06.716Z,616.40
2019-03-06T02:03:33.768Z,392.90
2019-03-06T02:06:00.819Z,1043.63
2019-03-06T02:08:27.963Z,522.50
2019-03-06T02:10:55.114Z,77.17
2019-03-06T02:13:22.162Z,281.10
2019-03-06T02:15:49.215Z,529.87
2019-03-06T02:18:16.273Z,88.97
2019-03-06T02:20:43.307Z,124.40
2019-03-06T02:23:10.460Z,243.63
2019-03-06T02:25:37.512Z,193.83
2019-03-06T02:28:04.557Z,143.60
2019-03-06T02:30:31.709Z,152.13
2019-03-06T02:32:58.755Z,244.17
2019-03-06T02:35:25.809Z,479.93
2019-03-06T02:37:52.961Z,261.43
2019-03-06T02:40:20.006Z,155.23
2019-03-06T02:42:47.675Z,210.03
2019-03-06T02:45:15.749Z,109.90
2019-03-06T02:47:42.793Z,199.00
2019-03-06T02:50:17.332Z,102.00
2019-03-06T02:52:45.184Z,146.87
2019-03-06T02:55:12.248Z,45.43
2019-03-06T02:57:39.385Z,149.70
2019-03-06T03:00:06.536Z,55.13
2019-03-06T03:02:34.610Z,63.13
2019-03-06T03:05:01.929Z,60.77
2019-03-06T03:07:29.006Z,84.70
2019-03-06T03:10:16.695Z,48.97
2019-03-06T03:12:44.009Z,112.97
2019-03-06T03:15:11.157Z,101.77
2019-03-06T03:17:38.193Z,105.83
2019-03-06T03:20:05.249Z,79.67
2019-03-06T03:22:32.293Z,61.87
2019-03-06T03:24:59.341Z,93.10
2019-03-06T03:27:26.593Z,70.93
2019-03-06T03:29:53.641Z,39.13
2019-03-06T03:32:20.588Z,58.80
2019-03-06T03:34:47.588Z,97.97
2019-03-06T03:37:15.094Z,126.97
2019-03-06T03:39:42.148Z,52.23
2019-03-06T03:42:09.192Z,130.43
2019-03-06T03:44:36.239Z,102.93
2019-03-06T03:47:03.295Z,122.23
2019-03-06T03:49:50.993Z,163.73
2019-03-06T03:52:18.070Z,102.73
2019-03-06T03:54:45.119Z,77.73
2019-03-06T03:57:12.281Z,51.93
2019-03-06T03:59:39.269Z,69.97
2019-03-06T04:02:07.089Z,48.30
2019-03-06T04:04:34.098Z,76.30
2019-03-06T04:07:01.183Z,61.37
2019-03-06T04:09:28.236Z,86.53
2019-03-06T04:11:55.385Z,59.63
2019-03-06T04:14:22.438Z,51.10
2019-03-06T04:16:49.477Z,82.80
2019-03-06T04:19:16.538Z,55.63
2019-03-06T04:21:45.833Z,56.17
2019-03-06T04:24:12.878Z,73.70
2019-03-06T04:26:41.671Z,62.40
2019-03-06T04:29:09.327Z,43.53
2019-03-06T04:31:37.094Z,40.57
2019-03-06T04:34:04.158Z,39.60
2019-03-06T04:36:33.815Z,106.67
2019-03-06T04:39:00.901Z,89.77
2019-03-06T04:41:28.768Z,143.27
2019-03-06T04:43:56.230Z,159.47
2019-03-06T04:46:23.276Z,119.83
2019-03-06T04:48:50.328Z,73.97
2019-03-06T04:51:17.827Z,125.60
2019-03-06T04:53:44.831Z,83.53
2019-03-06T04:56:11.881Z,61.63
2019-03-06T04:58:39.337Z,47.77
2019-03-06T05:01:06.393Z,33.83
2019-03-06T05:03:33.434Z,63.43
2019-03-06T05:06:00.898Z,39.40
2019-03-06T05:08:28.043Z,58.27
2019-03-06T05:10:55.092Z,61.17
2019-03-06T05:13:22.145Z,45.10
2019-03-06T05:15:49.189Z,47.80
2019-03-06T05:18:23.003Z,38.23
2019-03-06T05:20:50.147Z,29.73
2019-03-06T05:23:17.201Z,74.07
2019-03-06T05:25:44.246Z,32.60
2019-03-06T05:28:11.293Z,48.57
2019-03-06T05:30:38.346Z,51.40
2019-03-06T05:33:06.209Z,43.13
2019-03-06T05:35:39.303Z,37.90
2019-03-06T05:38:06.417Z,38.30
2019-03-06T05:40:33.502Z,37.43
2019-03-06T05:43:00.552Z,42.53
2019-03-06T05:45:27.601Z,37.17
2019-03-06T05:47:54.666Z,63.37
2019-03-06T05:50:21.704Z,51.07
2019-03-06T05:52:48.744Z,45.30
2019-03-06T05:55:20.046Z,50.13
2019-03-06T05:57:47.153Z,50.03
2019-03-06T06:00:15.556Z,78.30
2019-03-06T06:02:42.592Z,60.47
2019-03-06T06:05:09.722Z,49.60
2019-03-06T06:07:36.871Z,51.43
2019-03-06T06:10:04.024Z,49.67
2019-03-06T06:12:31.070Z,45.73
2019-03-06T06:14:58.124Z,58.13
2019-03-06T06:17:25.183Z,54.33
2019-03-06T06:19:52.193Z,48.83
2019-03-06T06:22:22.860Z,51.37
2019-03-06T06:24:50.413Z,53.37
2019-03-06T06:27:17.456Z,49.83
2019-03-06T06:29:44.504Z,46.63
2019-03-06T06:32:12.019Z,44.53
2019-03-06T06:34:39.114Z,44.67
2019-03-06T06:37:06.575Z,47.80
2019-03-06T06:39:36.391Z,49.53
2019-03-06T06:42:03.435Z,51.83
2019-03-06T06:44:33.018Z,49.43
2019-03-06T06:47:00.411Z,46.87
2019-03-06T06:49:27.346Z,40.50
2019-03-06T06:51:55.314Z,42.10
2019-03-06T06:54:25.134Z,47.07
2019-03-06T06:56:53.155Z,46.93
2019-03-06T06:59:26.291Z,47.40
2019-03-06T07:02:07.271Z,38.50
2019-03-06T07:04:51.928Z,44.33
2019-03-06T07:07:39.815Z,45.37
2019-03-06T07:10:22.691Z,49.67
2019-03-06T07:12:54.342Z,39.13
2019-03-06T07:15:21.443Z,42.40
2019-03-06T07:18:04.235Z,41.03
2019-03-06T07:20:34.125Z,36.43
2019-03-06T07:23:02.913Z,45.03
2019-03-06T07:25:31.708Z,31.67
2019-03-06T07:28:02.546Z,25.67
2019-03-06T07:30:32.461Z,28.70
2019-03-06T07:33:00.427Z,27.40
2019-03-06T07:35:37.118Z,33.63
2019-03-06T07:38:04.161Z,41.07
2019-03-06T07:40:52.340Z,25.40
2019-03-06T07:43:42.639Z,17.03
2019-03-06T07:46:39.819Z,13.30
2019-03-06T07:49:21.697Z,2.90
2019-03-06T07:51:54.667Z,6.17
2019-03-06T07:54:24.471Z,22.97
2019-03-06T07:56:51.598Z,23.63
2019-03-06T07:59:18.709Z,13.10
2019-03-06T08:01:46.608Z,27.33
2019-03-06T08:04:13.759Z,27.20
2019-03-06T08:06:41.387Z,7.80
2019-03-06T08:09:08.486Z,22.60
2019-03-06T08:11:50.373Z,23.37
2019-03-06T08:14:35.745Z,17.10
2019-03-06T08:17:05.661Z,24.20
2019-03-06T08:19:33.440Z,22.20
2019-03-06T08:22:06.208Z,25.50
2019-03-06T08:24:36.124Z,25.20
2019-03-06T08:27:03.384Z,24.70
2019-03-06T08:29:30.427Z,25.07
2019-03-06T08:31:57.444Z,24.67
2019-03-06T08:34:24.499Z,27.13
2019-03-06T08:36:51.576Z,27.40
2019-03-06T08:39:18.548Z,24.80
2019-03-06T08:41:45.680Z,21.67
2019-03-06T08:44:12.722Z,24.80
2019-03-06T08:46:39.874Z,26.67
2019-03-06T08:49:12.757Z,18.40
2019-03-06T08:51:45.663Z,21.97
2019-03-06T08:54:12.797Z,20.00
2019-03-06T08:56:45.784Z,21.50
2019-03-06T08:59:18.782Z,18.10
2019-03-06T09:01:46.649Z,20.67
2019-03-06T09:04:19.524Z,18.83
2019-03-06T09:07:02.440Z,19.80
2019-03-06T09:09:44.568Z,16.43
2019-03-06T09:12:27.367Z,16.63
2019-03-06T09:15:07.726Z,18.33
2019-03-06T09:17:35.384Z,25.23
2019-03-06T09:20:04.398Z,24.70
2019-03-06T09:22:33.374Z,17.50
2019-03-06T09:25:23.008Z,14.27
2019-03-06T09:28:16.342Z,14.90
2019-03-06T09:37:43.588Z,18.23
2019-03-06T09:40:51.854Z,12.10
2019-03-06T09:43:39.096Z,16.80
2019-03-06T09:46:24.946Z,19.90
2019-03-06T09:49:10.930Z,16.73
2019-03-06T09:51:33.486Z,17.30
2019-03-06T09:54:03.499Z,13.77
2019-03-06T09:56:33.414Z,13.97
2019-03-06T09:59:15.369Z,17.57
2019-03-06T10:02:06.471Z,14.87
2019-03-06T10:04:33.194Z,15.03
2019-03-06T10:07:17.526Z,12.90
2019-03-06T10:09:45.602Z,12.70
2019-03-06T10:12:12.748Z,12.37
2019-03-06T10:14:50.651Z,16.93
2019-03-06T10:17:23.440Z,18.73
2019-03-06T10:19:55.147Z,19.57
2019-03-06T10:22:24.594Z,12.83
2019-03-06T10:24:51.696Z,13.67
2019-03-06T10:27:18.800Z,17.67
2019-03-06T10:29:46.914Z,14.00
2019-03-06T10:32:14.016Z,15.63
2019-03-06T10:34:41.072Z,13.30
2019-03-06T10:37:08.337Z,15.93
2019-03-06T10:39:35.470Z,14.90
2019-03-06T10:42:02.541Z,10.17
2019-03-06T10:44:30.028Z,12.33
2019-03-06T10:46:56.736Z,10.93
2019-03-06T10:49:23.871Z,10.77
2019-03-06T10:51:50.917Z,11.30
2019-03-06T10:54:18.585Z,11.97
2019-03-06T10:56:45.761Z,13.47
2019-03-06T10:59:12.783Z,16.03
2019-03-06T11:01:39.955Z,14.00
2019-03-06T11:04:10.819Z,11.87
2019-03-06T11:06:38.957Z,12.43
2019-03-06T11:09:06.100Z,20.33
2019-03-06T11:11:33.279Z,15.10
2019-03-06T11:14:06.127Z,13.07
2019-03-06T11:16:30.204Z,12.57
2019-03-06T11:18:56.946Z,16.43
2019-03-06T11:21:23.895Z,10.13
2019-03-06T11:23:50.901Z,14.50
2019-03-06T11:26:18.061Z,16.70
2019-03-06T11:28:45.149Z,15.50
2019-03-06T11:31:12.244Z,15.50
2019-03-06T11:33:39.451Z,13.00
2019-03-06T11:36:06.622Z,10.97
2019-03-06T11:38:33.755Z,14.70
2019-03-06T11:41:00.802Z,13.27
2019-03-06T11:43:27.964Z,14.57
2019-03-06T11:45:55.001Z,16.12
2019-03-06T11:48:22.157Z,15.57
2019-03-06T11:50:49.202Z,15.23
2019-03-06T11:53:16.354Z,15.40
2019-03-06T11:55:43.506Z,10.67
2019-03-06T11:58:11.512Z,11.57
2019-03-06T12:00:38.619Z,20.17
2019-03-06T12:03:05.770Z,13.25
2019-03-06T12:05:32.798Z,15.53
2019-03-06T12:07:59.944Z,13.00
2019-03-06T12:10:27.131Z,13.07
2019-03-06T12:12:54.270Z,12.68
2019-03-06T12:15:21.424Z,16.00
2019-03-06T12:17:48.784Z,14.87
2019-03-06T12:20:16.031Z,12.75
2019-03-06T12:22:43.086Z,15.25
2019-03-06T12:25:10.245Z,16.77
2019-03-06T12:27:37.389Z,16.25
2019-03-06T12:30:04.484Z,11.55
2019-03-06T12:32:31.581Z,11.40
2019-03-06T12:34:58.638Z,15.93
2019-03-06T12:37:25.700Z,12.43
2019-03-06T12:39:52.728Z,18.92
2019-03-06T12:42:19.880Z,13.62
2019-03-06T12:44:46.929Z,12.80
2019-03-06T12:47:14.078Z,17.20
2019-03-06T12:49:41.068Z,9.45
2019-03-06T12:52:09.610Z,14.43
2019-03-06T12:54:36.704Z,14.73
2019-03-06T12:57:03.759Z,12.50
2019-03-06T12:59:31.370Z,14.70
2019-03-06T13:01:58.142Z,10.98
2019-03-06T13:04:25.159Z,16.67
2019-03-06T13:06:52.312Z,13.98
2019-03-06T13:09:19.463Z,8.40
2019-03-06T13:11:46.523Z,15.05
2019-03-06T13:14:13.661Z,19.25
2019-03-06T13:16:58.525Z,19.87
2019-03-06T13:19:50.074Z,16.60
2019-03-06T13:22:19.044Z,13.10
2019-03-06T13:24:46.106Z,17.50
2019-03-06T13:27:13.250Z,14.52
2019-03-06T13:29:57.587Z,20.45
2019-03-06T13:32:24.767Z,23.33
2019-03-06T13:34:52.685Z,24.15
2019-03-06T13:37:19.055Z,19.65
2019-03-06T13:39:46.052Z,22.23
2019-03-06T13:42:13.020Z,21.25
2019-03-06T13:44:40.096Z,22.20
2019-03-06T13:47:07.245Z,20.75
2019-03-06T13:49:34.297Z,24.83
2019-03-06T13:52:05.867Z,25.62
2019-03-06T13:54:33.001Z,28.60
2019-03-06T13:57:00.873Z,33.50
2019-03-06T13:59:27.971Z,24.83
2019-03-06T14:01:55.116Z,28.85
2019-03-06T14:04:26.380Z,29.60
2019-03-06T14:06:53.470Z,33.05
2019-03-06T14:09:20.514Z,31.00
2019-03-06T14:11:47.771Z,33.72
2019-03-06T14:14:14.821Z,40.08
2019-03-06T14:16:41.879Z,34.08
2019-03-06T14:21:50.508Z,37.17
2019-03-06T14:24:17.658Z,42.10
2019-03-06T14:26:44.703Z,40.78
2019-03-06T14:29:11.757Z,40.78
2019-03-06T14:31:38.906Z,42.25
2019-03-06T14:34:06.703Z,34.35
2019-03-06T14:36:33.819Z,36.90
2019-03-06T14:39:01.039Z,35.63
2019-03-06T14:41:28.189Z,35.35
2019-03-06T14:43:55.379Z,32.25
2019-03-06T14:46:22.422Z,28.52
2019-03-06T14:48:50.095Z,30.98
2019-03-06T14:51:17.139Z,30.80
2019-03-06T14:53:45.007Z,37.55
2019-03-06T14:56:12.097Z,37.75
2019-03-06T14:58:39.310Z,41.42
2019-03-06T15:01:06.407Z,38.17
2019-03-06T15:03:33.503Z,39.75
2019-03-06T15:06:00.655Z,34.50
2019-03-06T15:08:27.609Z,34.97
2019-03-06T15:10:54.649Z,35.00
2019-03-06T15:13:21.802Z,31.83
2019-03-06T15:15:48.864Z,31.25
2019-03-06T15:21:15.715Z,32.10
2019-03-06T15:23:43.463Z,34.78
2019-03-06T15:26:10.596Z,28.45
2019-03-06T15:28:37.683Z,22.05
2019-03-06T15:31:04.931Z,28.75
2019-03-06T15:33:31.986Z,24.70
2019-03-06T15:35:59.049Z,28.83
2019-03-06T15:38:28.630Z,27.45
2019-03-06T15:40:55.789Z,26.55
2019-03-06T15:43:23.356Z,28.48
2019-03-06T15:45:50.398Z,28.83
2019-03-06T15:48:17.658Z,33.70
2019-03-06T15:50:44.710Z,37.80
2019-03-06T15:53:12.115Z,36.17
2019-03-06T15:55:39.209Z,45.03
2019-03-06T15:58:06.225Z,41.67
2019-03-06T16:00:46.337Z,48.05
2019-03-06T16:03:07.324Z,42.97
2019-03-06T16:05:35.703Z,45.67
2019-03-06T16:08:02.852Z,47.03
2019-03-06T16:10:29.896Z,54.30
2019-03-06T16:12:57.082Z,47.57
2019-03-06T16:15:24.198Z,61.47
2019-03-06T16:17:51.266Z,55.30
2019-03-06T16:20:18.500Z,57.37
2019-03-06T16:22:45.549Z,63.47
2019-03-06T16:25:12.650Z,59.73
2019-03-06T16:27:39.850Z,59.43
2019-03-06T16:30:08.845Z,60.47
2019-03-06T16:32:36.026Z,60.83
2019-03-06T16:35:04.066Z,64.27
2019-03-06T16:37:31.124Z,61.40
2019-03-06T16:39:58.988Z,62.00
2019-03-06T16:42:26.039Z,65.63
2019-03-06T16:44:53.286Z,68.63
2019-03-06T16:47:23.263Z,70.20
2019-03-06T16:49:52.507Z,73.23
2019-03-06T16:52:21.094Z,73.60
2019-03-06T16:54:48.199Z,67.67
2019-03-06T16:57:18.666Z,63.80
2019-03-06T16:59:45.940Z,70.00
2019-03-06T17:02:13.081Z,72.07
2019-03-06T17:04:40.735Z,73.07
2019-03-06T17:07:08.501Z,70.83
2019-03-06T17:09:35.652Z,69.63
2019-03-06T17:12:04.646Z,70.77
2019-03-06T17:14:31.796Z,70.30
2019-03-06T17:16:59.568Z,73.23
2019-03-06T17:19:46.567Z,74.90
2019-03-06T17:22:13.633Z,75.20
2019-03-06T17:24:40.988Z,71.50
2019-03-06T17:27:09.819Z,72.90
2019-03-06T17:29:37.030Z,70.40
2019-03-06T17:32:27.835Z,81.97
2019-03-06T17:34:57.860Z,75.27
2019-03-06T17:37:24.851Z,74.60
2019-03-06T17:39:51.864Z,76.27
2019-03-06T17:42:19.111Z,79.27
2019-03-06T17:44:46.457Z,74.70
2019-03-06T17:47:13.502Z,78.40
2019-03-06T17:49:40.555Z,83.90
2019-03-06T17:52:07.708Z,76.33
2019-03-06T17:54:35.740Z,80.57
2019-03-06T17:57:02.780Z,74.73
2019-03-06T17:59:29.829Z,76.83
2019-03-06T18:01:56.926Z,83.10
2019-03-06T18:04:23.969Z,78.47
2019-03-06T18:06:51.120Z,75.77
2019-03-06T18:09:37.226Z,74.60
2019-03-06T18:12:04.324Z,85.37
2019-03-06T18:14:31.419Z,79.80
2019-03-06T18:17:13.654Z,80.97
2019-03-06T18:19:42.817Z,77.97
2019-03-06T18:22:09.939Z,80.67
2019-03-06T18:24:37.017Z,84.63
2019-03-06T18:27:04.192Z,86.33
2019-03-06T18:29:31.420Z,83.90
2019-03-06T18:31:58.410Z,82.50
2019-03-06T18:34:25.523Z,81.70
2019-03-06T18:36:52.567Z,85.47
2019-03-06T18:39:19.667Z,80.90
2019-03-06T18:41:46.780Z,79.77
2019-03-06T18:44:13.918Z,84.90
2019-03-06T18:46:40.970Z,79.83
2019-03-06T18:49:08.014Z,81.27
2019-03-06T18:51:35.062Z,83.97
2019-03-06T18:54:02.214Z,76.40
2019-03-06T18:56:29.267Z,84.47
2019-03-06T18:58:56.312Z,77.40
2019-03-06T19:01:23.461Z,79.60
2019-03-06T19:03:50.511Z,77.97
2019-03-06T19:06:17.662Z,74.70
2019-03-06T19:09:07.309Z,73.97
2019-03-06T19:11:54.439Z,73.00
2019-03-06T19:14:21.507Z,72.70
2019-03-06T19:17:03.002Z,72.00
2019-03-06T19:19:30.150Z,73.63
2019-03-06T19:21:58.320Z,89.20
2019-03-06T19:24:25.375Z,88.93
2019-03-06T19:26:52.419Z,81.80
2019-03-06T19:29:19.466Z,82.07
2019-03-06T19:31:46.521Z,79.33
2019-03-06T19:34:13.563Z,78.23
2019-03-06T19:36:40.612Z,75.93
2019-03-06T19:39:07.767Z,77.03
2019-03-06T19:41:34.922Z,84.17
2019-03-06T19:44:02.787Z,69.83
2019-03-06T19:46:31.600Z,72.40
2019-03-06T19:48:58.727Z,89.10
2019-03-06T19:51:25.771Z,80.60
2019-03-06T19:53:52.785Z,76.07
2019-03-06T19:56:19.873Z,73.80
2019-03-06T19:58:47.224Z,71.17
2019-03-06T20:01:14.273Z,76.13
2019-03-06T20:06:40.675Z,78.73
2019-03-06T20:09:13.720Z,80.50
2019-03-06T20:11:40.764Z,69.40
2019-03-06T20:14:07.845Z,69.13
2019-03-06T20:16:34.984Z,79.10
2019-03-06T20:19:03.037Z,73.33
2019-03-06T20:21:31.651Z,67.33
2019-03-06T20:23:58.779Z,71.27
2019-03-06T20:26:25.956Z,69.60
2019-03-06T20:28:53.540Z,63.07
2019-03-06T20:31:20.652Z,62.67
2019-03-06T20:33:47.746Z,62.83
2019-03-06T20:36:16.069Z,55.77
2019-03-06T20:38:43.222Z,60.80
2019-03-06T20:41:10.264Z,58.67
2019-03-06T20:43:37.531Z,61.53
2019-03-06T20:46:05.715Z,52.93
2019-03-06T20:48:52.572Z,51.07
2019-03-06T20:51:49.213Z,50.10
2019-03-06T20:54:42.899Z,54.90
2019-03-06T20:57:09.986Z,49.30
2019-03-06T20:59:37.130Z,52.10
2019-03-06T21:02:05.000Z,49.23
2019-03-06T21:04:32.037Z,55.30
2019-03-06T21:07:00.587Z,47.23
2019-03-06T21:09:27.699Z,54.80
2019-03-06T21:11:54.825Z,56.27
2019-03-06T21:14:21.868Z,57.63
2019-03-06T21:16:48.917Z,48.33
2019-03-06T21:19:15.983Z,50.17
2019-03-06T21:21:43.017Z,52.47
2019-03-06T21:24:10.294Z,55.23
2019-03-06T21:26:37.317Z,51.50
2019-03-06T21:29:04.468Z,44.83
2019-03-06T21:31:31.520Z,48.53
2019-03-06T21:33:59.491Z,47.67
2019-03-06T21:36:26.483Z,50.13
2019-03-06T21:38:53.586Z,50.43
2019-03-06T21:41:20.738Z,54.27
2019-03-06T21:43:47.789Z,52.80
2019-03-06T21:46:15.054Z,48.97
2019-03-06T21:48:42.032Z,55.37
2019-03-06T21:51:09.140Z,62.13
2019-03-06T21:53:39.166Z,59.67
2019-03-06T21:56:05.093Z,49.50
2019-03-06T21:58:32.129Z,50.70
2019-03-06T22:00:59.174Z,48.77
2019-03-06T22:03:26.229Z,41.17
2019-03-06T22:05:54.251Z,47.17
2019-03-06T22:08:21.341Z,46.23
2019-03-06T22:10:48.490Z,47.07
2019-03-06T22:13:15.846Z,50.73
2019-03-06T22:15:42.918Z,50.40
2019-03-06T22:18:23.064Z,43.23
2019-03-06T22:20:50.110Z,52.37
2019-03-06T22:23:19.187Z,52.77
2019-03-06T22:25:44.606Z,49.70
2019-03-06T22:28:11.657Z,49.17
2019-03-06T22:30:39.223Z,47.63
2019-03-06T22:33:06.267Z,45.23
2019-03-06T22:35:33.319Z,48.37
2019-03-06T22:38:00.566Z,41.70
2019-03-06T22:40:27.626Z,46.53
2019-03-06T22:42:54.669Z,45.57
2019-03-06T22:45:22.036Z,51.60
2019-03-06T22:47:49.073Z,48.57
2019-03-06T22:50:16.115Z,48.77
2019-03-06T22:52:45.011Z,50.23
2019-03-06T22:55:14.925Z,43.97
2019-03-06T22:57:41.977Z,45.60
2019-03-06T23:00:14.911Z,42.10
2019-03-06T23:02:42.009Z,42.47
2019-03-06T23:05:09.094Z,41.53
2019-03-06T23:07:36.207Z,43.40
2019-03-06T23:10:03.364Z,40.87
2019-03-06T23:12:30.412Z,41.37
2019-03-06T23:14:57.459Z,43.47
2019-03-06T23:17:24.966Z,43.90
2019-03-06T23:19:52.712Z,40.53
2019-03-06T23:22:19.217Z,40.50
2019-03-06T23:24:46.369Z,40.10
2019-03-06T23:27:14.241Z,42.73
2019-03-06T23:29:41.395Z,39.47
2019-03-06T23:32:08.434Z,41.53
2019-03-06T23:34:35.585Z,39.97
2019-03-06T23:37:02.633Z,40.77
2019-03-06T23:39:29.687Z,41.30
2019-03-06T23:41:56.846Z,41.77
2019-03-06T23:44:23.881Z,42.03
2019-03-06T23:46:50.930Z,40.97
2019-03-06T23:49:17.983Z,40.87
2019-03-06T23:51:50.972Z,43.27
2019-03-06T23:54:19.455Z,41.17
2019-03-06T23:56:45.169Z,39.17
2019-03-06T23:59:12.155Z,37.80
